createdAt,value
2018-05-17T00:07:24.523Z,8.80
2018-05-17T00:22:53.865Z,8.80
2018-05-17T00:28:34.800Z,9.00
2018-05-17T00:34:31.960Z,9.10
2018-05-17T00:37:18.089Z,9.20
2018-05-17T00:55:45.580Z,9.30
2018-05-17T00:58:38.391Z,9.30
2018-05-17T01:01:24.726Z,9.40
2018-05-17T01:03:54.872Z,9.40
2018-05-17T01:06:49.896Z,9.50
2018-05-17T01:09:38.277Z,9.50
2018-05-17T01:15:37.214Z,9.60
2018-05-17T01:18:23.318Z,9.60
2018-05-17T01:24:19.895Z,9.60
2018-05-17T01:27:14.183Z,9.70
2018-05-17T01:32:54.889Z,9.70
2018-05-17T01:35:28.304Z,9.70
2018-05-17T01:41:25.347Z,9.70
2018-05-17T01:43:55.518Z,9.70
2018-05-17T01:49:36.085Z,9.70
2018-05-17T01:52:06.597Z,9.70
2018-05-17T01:57:47.135Z,9.80
2018-05-17T02:03:28.530Z,9.80
2018-05-17T02:09:03.309Z,9.80
2018-05-17T02:11:33.847Z,9.80
2018-05-17T02:14:03.995Z,9.80
2018-05-17T02:16:34.323Z,9.80
2018-05-17T02:19:06.332Z,9.80
2018-05-17T02:21:36.483Z,9.80
2018-05-17T02:30:33.454Z,9.70
2018-05-17T02:33:03.916Z,9.70
2018-05-17T02:35:54.727Z,9.70
2018-05-17T02:38:31.726Z,9.70
2018-05-17T02:44:11.700Z,9.60
2018-05-17T02:46:41.883Z,9.60
2018-05-17T02:49:12.169Z,9.60
2018-05-17T02:51:42.417Z,9.60
2018-05-17T02:54:29.630Z,9.50
2018-05-17T02:56:59.920Z,9.50
2018-05-17T02:59:58.335Z,9.50
2018-05-17T03:02:28.526Z,9.50
2018-05-17T03:04:59.452Z,9.50
2018-05-17T03:07:57.362Z,9.50
2018-05-17T03:10:27.643Z,9.40
2018-05-17T03:15:42.674Z,9.40
2018-05-17T03:18:18.106Z,9.40
2018-05-17T03:20:51.704Z,9.40
2018-05-17T03:26:31.596Z,9.40
2018-05-17T03:29:03.899Z,9.40
2018-05-17T03:31:35.219Z,9.40
2018-05-17T03:34:05.430Z,9.40
2018-05-17T03:37:04.820Z,9.40
2018-05-17T03:39:35.417Z,9.40
2018-05-17T03:45:17.799Z,9.40
2018-05-17T03:47:53.465Z,9.30
2018-05-17T03:50:31.639Z,9.30
2018-05-17T03:56:12.018Z,9.30
2018-05-17T03:58:43.275Z,9.30
2018-05-17T04:01:29.899Z,9.30
2018-05-17T04:04:16.880Z,9.30
2018-05-17T04:06:47.319Z,9.20
2018-05-17T04:09:17.711Z,9.20
2018-05-17T04:11:50.776Z,9.20
2018-05-17T04:14:23.623Z,9.20
2018-05-17T04:16:54.580Z,9.20
2018-05-17T04:19:24.824Z,9.20
2018-05-17T04:21:55.399Z,9.20
2018-05-17T04:24:25.625Z,9.20
2018-05-17T04:26:55.658Z,9.20
2018-05-17T04:29:25.868Z,9.20
2018-05-17T04:31:56.292Z,9.30
2018-05-17T04:34:26.497Z,9.30
2018-05-17T04:36:57.184Z,9.30
2018-05-17T04:39:28.083Z,9.30
2018-05-17T04:41:58.391Z,9.30
2018-05-17T04:44:28.985Z,9.40
2018-05-17T04:46:59.597Z,9.30
2018-05-17T04:49:30.296Z,9.40
2018-05-17T04:52:00.815Z,9.40
2018-05-17T04:54:38.510Z,9.40
2018-05-17T04:57:09.337Z,9.40
2018-05-17T04:59:39.771Z,9.40
2018-05-17T05:02:11.242Z,9.40
2018-05-17T05:04:41.686Z,9.40
2018-05-17T05:07:11.833Z,9.50
2018-05-17T05:09:41.999Z,9.40
2018-05-17T05:12:13.012Z,9.50
2018-05-17T05:14:43.110Z,9.40
2018-05-17T05:17:14.136Z,9.50
2018-05-17T05:19:45.496Z,9.50
2018-05-17T05:22:18.619Z,9.50
2018-05-17T05:24:49.088Z,9.50
2018-05-17T05:27:19.480Z,9.50
2018-05-17T05:29:49.671Z,9.50
2018-05-17T05:32:20.591Z,9.50
2018-05-17T05:34:50.846Z,9.50
2018-05-17T05:37:21.077Z,9.50
2018-05-17T05:39:51.213Z,9.50
2018-05-17T05:42:22.178Z,9.50
2018-05-17T05:44:52.318Z,9.40
2018-05-17T05:47:22.462Z,9.50
2018-05-17T05:49:52.616Z,9.50
2018-05-17T05:52:22.787Z,9.50
2018-05-17T05:54:52.977Z,9.50
2018-05-17T05:57:23.126Z,9.50
2018-05-17T05:59:53.211Z,9.40
2018-05-17T06:02:23.334Z,9.40
2018-05-17T06:04:53.414Z,9.40
2018-05-17T06:07:23.532Z,9.40
2018-05-17T06:09:54.596Z,9.40
2018-05-17T06:12:24.829Z,9.50
2018-05-17T06:14:55.046Z,9.50
2018-05-17T06:17:26.052Z,9.50
2018-05-17T06:19:56.584Z,9.60
2018-05-17T06:22:26.957Z,9.60
2018-05-17T06:24:57.237Z,9.60
2018-05-17T06:27:27.351Z,9.60
2018-05-17T06:29:58.055Z,9.60
2018-05-17T06:32:28.164Z,9.70
2018-05-17T06:34:58.285Z,9.70
2018-05-17T06:37:28.632Z,9.80
2018-05-17T06:39:58.830Z,9.90
2018-05-17T06:42:28.941Z,9.90
2018-05-17T06:44:59.220Z,9.90
2018-05-17T06:47:29.355Z,10.10
2018-05-17T06:49:59.511Z,10.10
2018-05-17T06:52:29.627Z,10.20
2018-05-17T06:54:59.847Z,10.20
2018-05-17T06:57:30.071Z,10.10
2018-05-17T07:00:00.187Z,10.00
2018-05-17T07:02:30.440Z,9.90
2018-05-17T07:05:00.558Z,9.70
2018-05-17T07:07:34.802Z,9.60
2018-05-17T07:10:06.400Z,9.50
2018-05-17T07:12:36.957Z,9.50
2018-05-17T07:15:08.329Z,9.40
2018-05-17T07:17:46.339Z,9.50
2018-05-17T07:20:16.726Z,9.50
2018-05-17T07:22:46.817Z,9.60
2018-05-17T07:25:17.048Z,9.70
2018-05-17T07:27:57.785Z,9.80
2018-05-17T07:30:28.031Z,9.90
2018-05-17T07:32:58.563Z,10.10
2018-05-17T07:35:28.714Z,10.20
2018-05-17T07:37:58.896Z,10.30
2018-05-17T07:40:30.473Z,10.20
2018-05-17T07:43:01.375Z,9.90
2018-05-17T07:45:31.481Z,9.90
2018-05-17T07:48:01.590Z,9.70
2018-05-17T07:50:31.755Z,9.60
2018-05-17T07:53:04.742Z,9.50
2018-05-17T07:55:34.945Z,9.40
2018-05-17T07:58:05.483Z,9.30
2018-05-17T08:00:36.463Z,9.20
2018-05-17T08:03:06.336Z,9.20
2018-05-17T08:05:36.438Z,9.20
2018-05-17T08:08:06.712Z,9.20
2018-05-17T08:10:38.077Z,9.30
2018-05-17T08:13:08.203Z,9.20
2018-05-17T08:15:38.322Z,9.30
2018-05-17T08:18:08.549Z,9.30
2018-05-17T08:20:39.005Z,9.40
2018-05-17T08:23:09.133Z,9.40
2018-05-17T08:25:39.017Z,9.30
2018-05-17T08:28:09.998Z,9.40
2018-05-17T08:30:40.103Z,9.40
2018-05-17T08:33:10.212Z,9.50
2018-05-17T08:35:40.767Z,9.70
2018-05-17T08:38:10.929Z,9.80
2018-05-17T08:40:41.385Z,9.80
2018-05-17T08:43:11.589Z,9.90
2018-05-17T08:45:42.094Z,10.00
2018-05-17T08:48:11.696Z,10.00
2018-05-17T08:50:42.111Z,10.00
2018-05-17T08:53:12.268Z,10.00
2018-05-17T08:55:43.228Z,10.30
2018-05-17T08:58:14.392Z,10.60
2018-05-17T09:00:44.505Z,10.60
2018-05-17T09:03:14.356Z,10.80
2018-05-17T09:05:44.586Z,10.90
2018-05-17T09:08:14.786Z,11.10
2018-05-17T09:10:44.895Z,11.10
2018-05-17T09:13:15.018Z,11.00
2018-05-17T09:15:45.164Z,11.10
2018-05-17T09:18:15.355Z,11.10
2018-05-17T09:20:45.455Z,11.10
2018-05-17T09:23:15.693Z,11.20
2018-05-17T09:25:46.387Z,11.10
2018-05-17T09:28:17.499Z,10.80
2018-05-17T09:30:47.825Z,10.80
2018-05-17T09:33:18.130Z,10.70
2018-05-17T09:35:48.477Z,10.70
2018-05-17T09:38:19.616Z,11.00
2018-05-17T09:40:50.023Z,11.00
2018-05-17T09:43:19.823Z,11.00
2018-05-17T09:45:49.927Z,11.10
2018-05-17T09:48:20.219Z,11.10
2018-05-17T09:50:50.880Z,10.90
2018-05-17T09:53:21.240Z,10.90
2018-05-17T09:55:51.920Z,10.90
2018-05-17T09:58:22.152Z,10.90
2018-05-17T10:00:52.371Z,10.90
2018-05-17T10:03:22.596Z,11.00
2018-05-17T10:05:52.796Z,11.10
2018-05-17T10:08:22.920Z,11.20
2018-05-17T10:10:53.166Z,11.50
2018-05-17T10:13:23.272Z,11.80
2018-05-17T10:15:53.363Z,11.80
2018-05-17T10:18:23.503Z,11.80
2018-05-17T10:20:53.603Z,11.80
2018-05-17T10:23:24.619Z,11.80
2018-05-17T10:25:54.730Z,11.80
2018-05-17T10:28:24.836Z,11.80
2018-05-17T10:30:54.931Z,11.80
2018-05-17T10:33:26.290Z,11.30
2018-05-17T10:35:56.427Z,11.30
2018-05-17T10:38:28.300Z,11.20
2018-05-17T10:40:59.229Z,11.10
2018-05-17T10:43:29.341Z,11.10
2018-05-17T10:45:59.439Z,11.10
2018-05-17T10:48:29.552Z,11.10
2018-05-17T10:50:59.929Z,11.10
2018-05-17T10:53:30.046Z,11.30
2018-05-17T10:56:00.213Z,11.50
2018-05-17T10:58:30.811Z,11.80
2018-05-17T11:01:01.138Z,11.90
2018-05-17T11:03:31.256Z,11.90
2018-05-17T11:06:01.878Z,12.00
2018-05-17T11:08:32.777Z,12.60
2018-05-17T11:11:02.900Z,12.60
2018-05-17T11:13:33.059Z,13.00
2018-05-17T11:16:03.356Z,13.30
2018-05-17T11:18:34.491Z,12.90
2018-05-17T11:21:04.756Z,12.90
2018-05-17T11:23:34.901Z,12.70
2018-05-17T11:26:05.048Z,12.40
2018-05-17T11:28:35.371Z,12.40
2018-05-17T11:31:05.539Z,12.30
2018-05-17T11:33:35.695Z,12.30
2018-05-17T11:36:06.035Z,12.60
2018-05-17T11:38:36.213Z,13.20
2018-05-17T11:41:06.516Z,13.50
2018-05-17T11:43:36.679Z,13.80
2018-05-17T11:46:06.812Z,13.80
2018-05-17T11:48:37.132Z,13.90
2018-05-17T11:51:07.748Z,13.70
2018-05-17T11:53:38.276Z,13.30
2018-05-17T11:56:08.472Z,13.20
2018-05-17T11:58:38.588Z,13.10
2018-05-17T12:01:08.347Z,12.90
2018-05-17T12:03:39.475Z,12.70
2018-05-17T12:06:09.819Z,12.70
2018-05-17T12:08:40.022Z,12.90
2018-05-17T12:11:10.423Z,13.00
2018-05-17T12:13:40.569Z,13.30
2018-05-17T12:16:10.673Z,13.50
2018-05-17T12:18:41.072Z,13.50
2018-05-17T12:21:11.403Z,13.50
2018-05-17T12:23:42.552Z,12.90
2018-05-17T12:26:12.698Z,12.80
2018-05-17T12:28:43.014Z,12.70
2018-05-17T12:31:13.253Z,12.70
2018-05-17T12:33:43.669Z,12.90
2018-05-17T12:36:13.762Z,13.00
2018-05-17T12:38:44.081Z,13.50
2018-05-17T12:41:14.368Z,13.90
2018-05-17T12:43:45.304Z,14.60
2018-05-17T12:46:15.423Z,14.60
2018-05-17T12:48:45.540Z,14.50
2018-05-17T12:51:15.638Z,14.20
2018-05-17T12:53:46.214Z,13.90
2018-05-17T12:56:16.525Z,13.90
2018-05-17T12:58:46.943Z,13.80
2018-05-17T13:01:17.492Z,13.80
2018-05-17T13:03:47.574Z,13.90
2018-05-17T13:06:17.698Z,14.10
2018-05-17T13:08:48.472Z,14.50
2018-05-17T13:11:18.586Z,15.10
2018-05-17T13:13:49.579Z,15.60
2018-05-17T13:16:20.994Z,16.00
2018-05-17T13:18:51.891Z,15.80
2018-05-17T13:21:22.559Z,15.80
2018-05-17T13:23:52.823Z,15.50
2018-05-17T13:26:22.972Z,15.00
2018-05-17T13:28:53.082Z,14.40
2018-05-17T13:31:24.430Z,14.40
2018-05-17T13:33:55.324Z,14.80
2018-05-17T13:36:25.493Z,14.80
2018-05-17T13:38:55.611Z,15.50
2018-05-17T13:41:25.719Z,15.80
2018-05-17T13:43:56.619Z,15.80
2018-05-17T13:46:26.932Z,15.80
2018-05-17T13:48:57.640Z,15.90
2018-05-17T13:51:27.742Z,15.50
2018-05-17T13:53:57.853Z,15.20
2018-05-17T13:56:28.220Z,14.90
2018-05-17T13:58:59.113Z,14.50
2018-05-17T14:01:30.272Z,14.00
2018-05-17T14:04:00.773Z,14.00
2018-05-17T14:06:31.149Z,13.90
2018-05-17T14:09:01.307Z,14.00
2018-05-17T14:11:31.425Z,14.00
2018-05-17T14:14:01.522Z,14.10
2018-05-17T14:16:32.958Z,14.00
2018-05-17T14:19:03.083Z,14.00
2018-05-17T14:21:33.432Z,13.70
2018-05-17T14:24:03.417Z,13.60
2018-05-17T14:26:33.519Z,13.90
2018-05-17T14:29:04.888Z,14.60
2018-05-17T14:31:35.201Z,14.60
2018-05-17T14:34:06.135Z,15.10
2018-05-17T14:36:36.488Z,15.10
2018-05-17T14:39:06.365Z,15.00
2018-05-17T14:41:36.477Z,14.90
2018-05-17T14:44:06.800Z,15.00
2018-05-17T14:46:37.154Z,15.20
2018-05-17T14:49:07.276Z,15.40
2018-05-17T14:51:37.569Z,15.40
2018-05-17T14:54:07.370Z,15.30
2018-05-17T14:56:37.667Z,15.30
2018-05-17T14:59:07.814Z,15.50
2018-05-17T15:01:38.010Z,15.80
2018-05-17T15:04:08.133Z,16.00
2018-05-17T15:06:39.022Z,15.50
2018-05-17T15:09:09.143Z,15.50
2018-05-17T15:11:39.282Z,15.20
2018-05-17T15:14:10.168Z,14.90
2018-05-17T15:16:40.298Z,14.90
2018-05-17T15:19:10.440Z,15.00
2018-05-17T15:21:41.507Z,15.10
2018-05-17T15:24:11.865Z,15.10
2018-05-17T15:26:42.729Z,15.30
2018-05-17T15:29:13.106Z,15.30
2018-05-17T15:31:43.226Z,15.30
2018-05-17T15:34:14.165Z,15.20
2018-05-17T15:36:44.451Z,15.20
2018-05-17T15:39:15.414Z,15.00
2018-05-17T15:41:46.427Z,14.50
2018-05-17T15:44:16.630Z,14.60
2018-05-17T15:46:47.485Z,14.90
2018-05-17T15:49:18.348Z,15.20
2018-05-17T15:51:49.241Z,15.10
2018-05-17T15:54:19.572Z,15.10
2018-05-17T15:56:49.728Z,15.40
2018-05-17T15:59:19.876Z,15.50
2018-05-17T16:01:50.571Z,15.60
2018-05-17T16:04:20.693Z,15.50
2018-05-17T16:06:51.585Z,15.50
2018-05-17T16:09:21.799Z,15.40
2018-05-17T16:11:52.082Z,15.30
2018-05-17T16:14:22.476Z,15.00
2018-05-17T16:16:53.366Z,14.80
2018-05-17T16:19:24.180Z,14.60
2018-05-17T16:21:54.597Z,14.50
2018-05-17T16:24:26.197Z,14.30
2018-05-17T16:26:57.568Z,14.20
2018-05-17T16:29:28.261Z,14.10
2018-05-17T16:31:59.744Z,14.00
2018-05-17T16:34:29.843Z,13.90
2018-05-17T16:37:02.043Z,13.80
2018-05-17T16:39:33.084Z,13.80
2018-05-17T16:42:03.439Z,13.80
2018-05-17T16:44:34.272Z,13.60
2018-05-17T16:47:04.838Z,13.50
2018-05-17T16:49:34.949Z,13.40
2018-05-17T16:52:06.030Z,13.20
2018-05-17T16:54:36.851Z,13.10
2018-05-17T16:57:09.685Z,12.90
2018-05-17T16:59:39.557Z,12.80
2018-05-17T17:02:09.941Z,12.70
2018-05-17T17:04:40.495Z,12.60
2018-05-17T17:07:11.349Z,12.50
2018-05-17T17:09:41.551Z,12.50
2018-05-17T17:12:12.477Z,12.40
2018-05-17T17:14:42.463Z,12.40
2018-05-17T17:17:13.374Z,12.50
2018-05-17T17:19:43.637Z,12.50
2018-05-17T17:22:13.804Z,12.40
2018-05-17T17:24:44.040Z,12.50
2018-05-17T17:27:15.792Z,12.60
2018-05-17T17:29:46.139Z,12.60
2018-05-17T17:32:16.315Z,12.50
2018-05-17T17:34:46.458Z,12.60
2018-05-17T17:37:16.605Z,12.70
2018-05-17T17:39:46.832Z,12.80
2018-05-17T17:42:17.043Z,12.90
2018-05-17T17:44:48.233Z,13.10
2018-05-17T17:47:18.408Z,13.10
2018-05-17T17:49:48.502Z,13.20
2018-05-17T17:52:18.928Z,13.40
2018-05-17T17:54:49.315Z,13.30
2018-05-17T17:57:19.609Z,13.30
2018-05-17T17:59:49.733Z,13.20
2018-05-17T18:02:21.593Z,13.20
2018-05-17T18:04:51.719Z,13.10
2018-05-17T18:07:21.841Z,13.00
2018-05-17T18:09:52.201Z,12.90
2018-05-17T18:12:22.415Z,12.60
2018-05-17T18:14:52.542Z,12.60
2018-05-17T18:17:22.702Z,12.40
2018-05-17T18:19:55.464Z,12.20
2018-05-17T18:22:25.679Z,12.20
2018-05-17T18:24:55.820Z,12.10
2018-05-17T18:27:26.417Z,12.10
2018-05-17T18:29:56.569Z,12.00
2018-05-17T18:32:26.998Z,11.90
2018-05-17T18:34:56.866Z,11.80
2018-05-17T18:37:27.032Z,11.70
2018-05-17T18:39:57.250Z,11.70
2018-05-17T18:42:28.494Z,11.50
2018-05-17T18:44:59.068Z,11.50
2018-05-17T18:47:29.123Z,11.40
2018-05-17T18:49:59.335Z,11.20
2018-05-17T18:52:29.533Z,11.10
2018-05-17T18:54:59.766Z,10.90
2018-05-17T18:57:29.913Z,10.70
2018-05-17T19:00:00.149Z,10.50
2018-05-17T19:02:30.518Z,10.30
2018-05-17T19:05:00.753Z,10.20
2018-05-17T19:07:31.668Z,9.80
2018-05-17T19:10:01.884Z,9.80
2018-05-17T19:12:32.089Z,9.70
2018-05-17T19:15:03.091Z,9.40
2018-05-17T19:17:33.293Z,9.40
2018-05-17T19:20:03.520Z,9.30
2018-05-17T19:22:33.326Z,9.20
2018-05-17T19:25:03.548Z,9.10
2018-05-17T19:27:34.658Z,9.00
2018-05-17T19:30:04.233Z,8.90
2018-05-17T19:32:34.342Z,8.80
2018-05-17T19:35:04.546Z,8.70
2018-05-17T19:37:34.742Z,8.70
2018-05-17T19:40:04.500Z,8.60
2018-05-17T19:42:34.674Z,8.50
2018-05-17T19:45:04.932Z,8.50
2018-05-17T19:47:35.222Z,8.40
2018-05-17T19:50:04.453Z,8.40
2018-05-17T19:52:34.934Z,8.40
2018-05-17T19:55:04.770Z,8.40
2018-05-17T19:57:35.925Z,8.30
2018-05-17T20:00:05.438Z,8.30
2018-05-17T20:02:35.624Z,8.30
2018-05-17T20:05:05.630Z,8.20
2018-05-17T20:07:35.841Z,8.20
2018-05-17T20:10:05.661Z,8.10
2018-05-17T20:12:35.858Z,8.10
2018-05-17T20:15:05.740Z,8.10
2018-05-17T20:17:36.082Z,8.00
2018-05-17T20:20:05.491Z,8.00
2018-05-17T20:22:35.706Z,8.00
2018-05-17T20:25:06.190Z,8.00
2018-05-17T20:27:36.428Z,7.90
2018-05-17T20:30:05.952Z,7.90
2018-05-17T20:32:36.208Z,7.80
2018-05-17T20:35:06.589Z,7.80
2018-05-17T20:37:36.935Z,7.80
2018-05-17T20:40:06.990Z,7.70
2018-05-17T20:42:37.258Z,7.70
2018-05-17T20:45:07.387Z,7.70
2018-05-17T20:47:38.036Z,7.70
2018-05-17T20:50:08.953Z,7.60
2018-05-17T20:52:41.241Z,7.60
2018-05-17T20:55:11.523Z,7.60
2018-05-17T20:57:41.882Z,7.50
2018-05-17T21:00:11.688Z,7.50
2018-05-17T21:02:42.132Z,7.40
2018-05-17T21:05:12.412Z,7.40
2018-05-17T21:07:43.363Z,7.30
2018-05-17T21:10:14.855Z,7.30
2018-05-17T21:12:46.428Z,7.30
2018-05-17T21:15:17.204Z,7.30
2018-05-17T21:17:47.485Z,7.30
2018-05-17T21:20:23.412Z,7.20
2018-05-17T21:22:53.679Z,7.20
2018-05-17T21:25:25.808Z,7.10
2018-05-17T21:27:58.386Z,7.10
2018-05-17T21:30:29.547Z,7.10
2018-05-17T21:33:01.321Z,7.10
2018-05-17T21:35:32.748Z,7.00
2018-05-17T21:38:04.078Z,7.00
2018-05-17T21:40:37.889Z,7.00
2018-05-17T21:43:12.583Z,7.00
2018-05-17T21:45:49.642Z,7.10
2018-05-17T21:48:26.284Z,7.10
2018-05-17T21:51:03.050Z,7.10
2018-05-17T21:53:40.035Z,7.00
2018-05-17T21:56:11.208Z,7.10
2018-05-17T21:58:45.091Z,7.10
2018-05-17T22:01:20.047Z,7.10
2018-05-17T22:03:53.507Z,7.20
2018-05-17T22:06:28.220Z,7.10
2018-05-17T22:09:00.958Z,7.10
2018-05-17T22:11:36.506Z,7.10
2018-05-17T22:14:12.471Z,7.10
2018-05-17T22:16:45.884Z,7.10
2018-05-17T22:19:20.334Z,7.10
2018-05-17T22:21:51.324Z,7.20
2018-05-17T22:24:25.466Z,7.20
2018-05-17T22:26:55.684Z,7.20
2018-05-17T22:29:25.831Z,7.20
2018-05-17T22:31:56.040Z,7.20
2018-05-17T22:34:27.573Z,7.20
2018-05-17T22:36:59.694Z,7.20
2018-05-17T22:39:32.521Z,7.20
2018-05-17T22:42:03.207Z,7.10
2018-05-17T22:44:35.301Z,7.10
2018-05-17T22:47:05.995Z,7.00
2018-05-17T22:49:36.201Z,7.00
2018-05-17T22:52:06.369Z,7.00
2018-05-17T22:54:40.664Z,7.10
2018-05-17T22:57:15.761Z,7.10
2018-05-17T22:59:46.330Z,7.10
2018-05-17T23:02:17.208Z,7.10
2018-05-17T23:04:49.050Z,7.10
2018-05-17T23:07:23.322Z,7.10
2018-05-17T23:09:55.812Z,7.10
2018-05-17T23:12:26.164Z,7.00
2018-05-17T23:14:59.455Z,7.00
2018-05-17T23:17:30.602Z,7.00
2018-05-17T23:20:05.963Z,6.90
2018-05-17T23:22:43.886Z,6.90
2018-05-17T23:25:14.292Z,6.80
2018-05-17T23:27:47.121Z,6.80
2018-05-17T23:30:20.417Z,6.80
2018-05-17T23:32:56.419Z,6.70
2018-05-17T23:35:31.205Z,6.70
2018-05-17T23:38:04.367Z,6.60
2018-05-17T23:43:59.125Z,6.60
2018-05-17T23:46:36.069Z,6.60
2018-05-17T23:49:07.072Z,6.50
2018-05-17T23:51:44.757Z,6.50
2018-05-17T23:54:20.315Z,6.40
2018-05-17T23:56:58.164Z,6.40
2018-05-17T23:59:34.351Z,6.30
